createdAt,value
2023-04-11T00:02:16.189Z,72.65
2023-04-11T00:04:44.125Z,68.72
2023-04-11T00:07:12.068Z,69.75
2023-04-11T00:09:39.831Z,71.47
2023-04-11T00:12:07.979Z,66.60
2023-04-11T00:14:35.676Z,71.78
2023-04-11T00:17:04.116Z,67.15
2023-04-11T00:19:33.492Z,58.20
2023-04-11T00:22:01.534Z,59.22
2023-04-11T00:24:29.242Z,57.78
2023-04-11T00:26:58.458Z,63.88
2023-04-11T00:29:26.165Z,54.88
2023-04-11T00:31:55.574Z,58.10
2023-04-11T00:34:23.441Z,57.47
2023-04-11T00:36:51.594Z,56.03
2023-04-11T00:39:20.390Z,59.42
2023-04-11T00:41:48.806Z,55.42
2023-04-11T00:44:16.707Z,64.28
2023-04-11T00:46:46.418Z,55.15
2023-04-11T00:49:14.263Z,52.95
2023-04-11T00:51:42.269Z,59.80
2023-04-11T00:54:10.437Z,55.53
2023-04-11T00:56:38.928Z,52.78
2023-04-11T00:59:06.834Z,57.63
2023-04-11T01:01:36.510Z,52.75
2023-04-11T01:04:05.583Z,53.95
2023-04-11T01:06:34.296Z,48.60
2023-04-11T01:09:04.918Z,56.03
2023-04-11T01:11:33.726Z,50.08
2023-04-11T01:14:01.932Z,50.30
2023-04-11T01:16:30.408Z,50.97
2023-04-11T01:18:58.300Z,52.47
2023-04-11T01:21:27.162Z,48.72
2023-04-11T01:23:56.617Z,48.97
2023-04-11T01:26:24.855Z,55.05
2023-04-11T01:28:52.548Z,55.55
2023-04-11T01:31:22.885Z,54.47
2023-04-11T01:33:50.728Z,58.90
2023-04-11T01:36:18.866Z,62.92
2023-04-11T01:38:46.539Z,62.20
2023-04-11T01:41:17.970Z,60.15
2023-04-11T01:43:46.081Z,64.10
2023-04-11T01:46:15.334Z,59.65
2023-04-11T01:48:45.706Z,58.75
2023-04-11T01:51:13.860Z,62.50
2023-04-11T01:53:41.532Z,61.85
2023-04-11T01:56:10.054Z,59.42
2023-04-11T01:58:37.986Z,54.55
2023-04-11T02:01:06.195Z,65.47
2023-04-11T02:03:34.272Z,62.80
2023-04-11T02:06:03.035Z,62.40
2023-04-11T02:08:30.942Z,59.42
2023-04-11T02:10:58.922Z,58.35
2023-04-11T02:13:26.667Z,56.55
2023-04-11T02:15:54.735Z,54.83
2023-04-11T02:18:26.625Z,52.22
2023-04-11T02:20:56.513Z,58.60
2023-04-11T02:23:24.380Z,59.88
2023-04-11T02:25:52.350Z,60.15
2023-04-11T02:28:20.515Z,56.38
2023-04-11T02:30:48.991Z,56.85
2023-04-11T02:33:19.875Z,57.80
2023-04-11T02:35:48.223Z,56.60
2023-04-11T02:38:15.929Z,56.28
2023-04-11T02:40:43.822Z,55.67
2023-04-11T02:43:11.556Z,57.65
2023-04-11T02:45:41.985Z,57.33
2023-04-11T02:48:11.151Z,63.35
2023-04-11T02:50:44.483Z,58.22
2023-04-11T02:53:12.533Z,61.58
2023-04-11T02:55:47.446Z,62.85
2023-04-11T02:58:17.962Z,50.10
2023-04-11T03:00:51.474Z,53.55
2023-04-11T03:03:19.448Z,57.10
2023-04-11T03:05:49.480Z,52.67
2023-04-11T03:08:22.168Z,52.47
2023-04-11T03:10:53.816Z,52.90
2023-04-11T03:13:23.693Z,54.45
2023-04-11T03:15:51.909Z,58.88
2023-04-11T03:18:20.527Z,55.45
2023-04-11T03:20:50.014Z,55.40
2023-04-11T03:23:18.356Z,54.17
2023-04-11T03:25:48.040Z,52.67
2023-04-11T03:28:16.852Z,54.67
2023-04-11T03:30:44.887Z,56.08
2023-04-11T03:33:15.036Z,50.05
2023-04-11T03:35:43.303Z,53.78
2023-04-11T03:38:12.021Z,52.00
2023-04-11T03:40:39.970Z,50.67
2023-04-11T03:43:15.611Z,53.72
2023-04-11T03:45:43.873Z,62.50
2023-04-11T03:48:20.170Z,51.88
2023-04-11T03:50:56.920Z,43.72
2023-04-11T03:53:32.804Z,47.97
2023-04-11T03:56:07.564Z,41.33
2023-04-11T03:58:37.918Z,39.72
2023-04-11T04:01:06.393Z,42.22
2023-04-11T04:03:34.680Z,49.03
2023-04-11T04:06:03.995Z,48.33
2023-04-11T04:08:31.772Z,54.17
2023-04-11T04:10:59.705Z,54.95
2023-04-11T04:13:28.318Z,43.92
2023-04-11T04:16:13.347Z,52.00
2023-04-11T04:18:44.598Z,51.05
2023-04-11T04:21:12.648Z,43.33
2023-04-11T04:23:52.797Z,44.65
2023-04-11T04:26:50.033Z,49.17
2023-04-11T04:29:39.817Z,46.75
2023-04-11T04:32:13.309Z,45.00
2023-04-11T04:34:49.528Z,47.05
2023-04-11T04:37:27.392Z,45.97
2023-04-11T04:40:16.033Z,44.92
2023-04-11T04:43:03.951Z,41.70
2023-04-11T04:45:39.159Z,41.85
2023-04-11T04:48:07.524Z,41.13
2023-04-11T04:50:35.582Z,45.13
2023-04-11T04:53:03.509Z,39.22
2023-04-11T04:55:31.501Z,36.53
2023-04-11T04:57:59.884Z,34.80
2023-04-11T05:00:28.145Z,28.70
2023-04-11T05:03:00.896Z,25.58
2023-04-11T05:05:32.653Z,22.75
2023-04-11T05:08:01.512Z,24.25
2023-04-11T05:10:31.931Z,21.20
2023-04-11T05:13:00.045Z,20.77
2023-04-11T05:15:27.804Z,20.88
2023-04-11T05:17:55.731Z,19.60
2023-04-11T05:20:24.771Z,17.30
2023-04-11T05:22:53.567Z,19.40
2023-04-11T05:25:22.412Z,22.17
2023-04-11T05:27:51.771Z,19.10
2023-04-11T05:30:23.687Z,19.58
2023-04-11T05:32:52.289Z,17.48
2023-04-11T05:35:20.087Z,18.90
2023-04-11T05:37:53.723Z,19.52
2023-04-11T05:40:21.399Z,17.27
2023-04-11T05:42:50.466Z,16.08
2023-04-11T05:45:19.556Z,18.58
2023-04-11T05:47:47.492Z,16.58
2023-04-11T05:50:16.288Z,17.67
2023-04-11T05:52:44.460Z,14.50
2023-04-11T05:55:12.397Z,15.40
2023-04-11T05:57:40.653Z,17.05
2023-04-11T06:00:16.877Z,18.27
2023-04-11T06:02:46.365Z,16.73
2023-04-11T06:05:16.573Z,14.23
2023-04-11T06:07:45.440Z,14.25
2023-04-11T06:10:13.481Z,14.43
2023-04-11T06:12:41.371Z,15.95
2023-04-11T06:15:09.842Z,15.77
2023-04-11T06:17:38.311Z,14.63
2023-04-11T06:20:07.342Z,21.27
2023-04-11T06:22:35.714Z,11.57
2023-04-11T06:25:04.436Z,16.33
2023-04-11T06:27:32.438Z,13.38
2023-04-11T06:30:00.103Z,12.07
2023-04-11T06:32:28.317Z,12.07
2023-04-11T06:34:56.312Z,13.90
2023-04-11T06:37:24.777Z,13.13
2023-04-11T06:39:52.503Z,15.20
2023-04-11T06:42:20.700Z,17.80
2023-04-11T06:44:52.168Z,13.18
2023-04-11T06:47:20.527Z,13.35
2023-04-11T06:49:48.242Z,14.38
2023-04-11T06:52:16.606Z,15.82
2023-04-11T06:54:44.255Z,11.88
2023-04-11T06:57:13.538Z,12.25
2023-04-11T06:59:41.679Z,13.60
2023-04-11T07:02:09.863Z,13.65
2023-04-11T07:04:37.909Z,11.13
2023-04-11T07:07:05.979Z,13.15
2023-04-11T07:09:33.669Z,10.25
2023-04-11T07:12:01.771Z,11.55
2023-04-11T07:14:29.654Z,11.93
2023-04-11T07:16:57.551Z,11.93
2023-04-11T07:19:25.258Z,11.80
2023-04-11T07:21:53.250Z,10.98
2023-04-11T07:24:21.173Z,9.90
2023-04-11T07:26:51.897Z,9.48
2023-04-11T07:29:20.264Z,11.07
2023-04-11T07:31:49.642Z,8.68
2023-04-11T07:34:17.519Z,8.27
2023-04-11T07:36:45.551Z,7.85
2023-04-11T07:39:14.216Z,8.15
2023-04-11T07:41:42.130Z,8.82
2023-04-11T07:44:09.842Z,7.90
2023-04-11T07:46:37.788Z,9.45
2023-04-11T07:49:05.491Z,8.57
2023-04-11T07:51:33.530Z,8.30
2023-04-11T07:54:01.175Z,7.43
2023-04-11T07:56:29.129Z,7.45
2023-04-11T07:58:58.446Z,4.88
2023-04-11T08:01:27.138Z,5.18
2023-04-11T08:03:56.776Z,5.05
2023-04-11T08:06:25.256Z,6.38
2023-04-11T08:08:52.888Z,8.20
2023-04-11T08:11:20.813Z,6.28
2023-04-11T08:13:48.477Z,6.07
2023-04-11T08:16:16.793Z,5.28
2023-04-11T08:18:45.716Z,6.93
2023-04-11T08:21:13.744Z,6.82
2023-04-11T08:23:42.305Z,5.10
2023-04-11T08:26:12.928Z,6.25
2023-04-11T08:28:42.646Z,5.93
2023-04-11T08:31:13.561Z,5.00
2023-04-11T08:33:41.831Z,5.22
2023-04-11T08:36:10.871Z,5.20
2023-04-11T08:38:39.849Z,5.97
2023-04-11T08:41:07.974Z,5.32
2023-04-11T08:43:36.698Z,4.82
2023-04-11T08:46:05.006Z,5.38
2023-04-11T08:48:33.034Z,5.82
2023-04-11T08:51:01.308Z,5.15
2023-04-11T08:53:30.510Z,4.03
2023-04-11T08:55:59.911Z,4.00
2023-04-11T08:58:27.794Z,3.80
2023-04-11T09:00:55.897Z,4.40
2023-04-11T09:03:23.699Z,5.07
2023-04-11T09:05:51.782Z,5.45
2023-04-11T09:08:20.012Z,5.68
2023-04-11T09:10:48.036Z,3.70
2023-04-11T09:13:24.405Z,3.83
2023-04-11T09:16:14.944Z,3.85
2023-04-11T09:18:44.935Z,3.42
2023-04-11T09:21:17.170Z,3.92
2023-04-11T09:23:44.999Z,4.13
2023-04-11T09:26:25.278Z,6.60
2023-04-11T09:28:53.931Z,4.50
2023-04-11T09:31:39.399Z,3.65
2023-04-11T09:34:07.254Z,5.32
2023-04-11T09:36:35.359Z,4.05
2023-04-11T09:39:17.690Z,3.92
2023-04-11T09:41:46.189Z,3.38
2023-04-11T09:44:14.044Z,4.20
2023-04-11T09:47:00.258Z,5.00
2023-04-11T09:49:29.538Z,3.30
2023-04-11T09:51:59.647Z,4.57
2023-04-11T09:54:28.666Z,2.70
2023-04-11T09:56:58.407Z,3.00
2023-04-11T09:59:27.452Z,3.25
2023-04-11T10:01:56.813Z,3.35
2023-04-11T10:04:27.887Z,3.53
2023-04-11T10:07:12.879Z,5.18
2023-04-11T10:09:45.501Z,3.58
2023-04-11T10:12:13.481Z,4.20
2023-04-11T10:14:41.846Z,5.10
2023-04-11T10:17:23.694Z,3.90
2023-04-11T10:19:58.766Z,4.03
2023-04-11T10:23:02.106Z,5.15
2023-04-11T10:25:30.671Z,5.45
2023-04-11T10:28:06.447Z,4.43
2023-04-11T10:30:40.330Z,5.57
2023-04-11T10:33:13.416Z,4.85
2023-04-11T10:36:02.035Z,6.10
2023-04-11T10:38:47.202Z,4.95
2023-04-11T10:41:18.785Z,5.00
2023-04-11T10:43:47.776Z,5.75
2023-04-11T10:46:22.851Z,5.22
2023-04-11T10:49:33.202Z,5.85
2023-04-11T10:52:22.999Z,4.63
2023-04-11T10:54:54.973Z,6.70
2023-04-11T10:57:23.159Z,4.60
2023-04-11T10:59:51.442Z,4.63
2023-04-11T11:02:19.992Z,4.80
2023-04-11T11:04:49.899Z,4.68
2023-04-11T11:07:17.862Z,5.85
2023-04-11T11:09:51.149Z,5.55
2023-04-11T11:12:19.253Z,5.30
2023-04-11T11:14:47.824Z,8.75
2023-04-11T11:17:17.108Z,6.25
2023-04-11T11:19:46.775Z,4.85
2023-04-11T11:22:19.080Z,6.45
2023-04-11T11:24:47.076Z,5.85
2023-04-11T11:27:25.229Z,7.05
2023-04-11T11:29:53.725Z,4.93
2023-04-11T11:32:30.002Z,5.20
2023-04-11T11:34:58.833Z,5.03
2023-04-11T11:37:27.105Z,5.22
2023-04-11T11:39:55.328Z,5.72
2023-04-11T11:42:23.115Z,5.32
2023-04-11T11:44:51.136Z,5.88
2023-04-11T11:47:18.928Z,8.10
2023-04-11T11:49:52.142Z,7.43
2023-04-11T11:52:37.612Z,7.88
2023-04-11T11:55:11.341Z,10.32
2023-04-11T11:57:45.245Z,8.05
2023-04-11T12:00:14.158Z,5.43
2023-04-11T12:02:43.025Z,7.60
2023-04-11T12:05:12.617Z,8.55
2023-04-11T12:07:40.981Z,9.25
2023-04-11T12:10:13.537Z,9.43
2023-04-11T12:12:44.343Z,8.48
2023-04-11T12:15:24.306Z,9.68
2023-04-11T12:17:57.716Z,10.75
2023-04-11T12:20:27.277Z,8.98
2023-04-11T12:22:56.252Z,9.65
2023-04-11T12:25:27.160Z,10.15
2023-04-11T12:27:54.842Z,11.25
2023-04-11T12:30:22.847Z,10.48
2023-04-11T12:32:50.793Z,10.77
2023-04-11T12:35:18.679Z,10.13
2023-04-11T12:37:46.447Z,10.25
2023-04-11T12:40:15.554Z,9.23
2023-04-11T12:42:53.504Z,11.55
2023-04-11T12:45:24.177Z,9.75
2023-04-11T12:47:52.315Z,9.07
2023-04-11T12:50:22.998Z,9.07
2023-04-11T12:52:50.737Z,8.85
2023-04-11T12:55:18.795Z,8.85
2023-04-11T12:57:46.485Z,10.40
2023-04-11T13:00:15.172Z,10.15
2023-04-11T13:02:44.856Z,10.55
2023-04-11T13:05:15.662Z,11.13
2023-04-11T13:07:45.012Z,11.88
2023-04-11T13:10:16.865Z,9.27
2023-04-11T13:12:45.729Z,11.20
2023-04-11T13:15:16.577Z,11.05
2023-04-11T13:17:44.698Z,9.90
2023-04-11T13:20:13.283Z,9.13
2023-04-11T13:22:42.259Z,10.55
2023-04-11T13:25:12.053Z,8.70
2023-04-11T13:27:40.657Z,12.73
2023-04-11T13:30:10.590Z,13.45
2023-04-11T13:32:38.550Z,8.90
2023-04-11T13:35:07.354Z,14.00
2023-04-11T13:37:35.082Z,8.98
2023-04-11T13:40:06.847Z,9.23
2023-04-11T13:42:34.620Z,12.00
2023-04-11T13:45:02.654Z,8.32
2023-04-11T13:47:30.426Z,10.48
2023-04-11T13:49:58.371Z,9.35
2023-04-11T13:52:26.087Z,10.80
2023-04-11T13:54:54.027Z,10.23
2023-04-11T13:57:22.269Z,11.07
2023-04-11T13:59:50.300Z,10.73
2023-04-11T14:02:18.095Z,10.20
2023-04-11T14:04:46.615Z,11.55
2023-04-11T14:07:14.276Z,10.40
2023-04-11T14:09:42.223Z,9.23
2023-04-11T14:12:09.941Z,9.38
2023-04-11T14:14:37.899Z,9.85
2023-04-11T14:17:05.744Z,14.52
2023-04-11T14:19:33.820Z,11.43
2023-04-11T14:22:01.621Z,8.93
2023-04-11T14:24:29.794Z,8.02
2023-04-11T14:26:57.635Z,8.82
2023-04-11T14:29:26.615Z,8.40
2023-04-11T14:31:54.510Z,8.00
2023-04-11T14:34:22.552Z,7.80
2023-04-11T14:36:50.369Z,6.80
2023-04-11T14:39:18.445Z,10.32
2023-04-11T14:41:47.194Z,8.98
2023-04-11T14:44:16.607Z,8.52
2023-04-11T14:46:44.407Z,8.65
2023-04-11T14:49:12.476Z,7.20
2023-04-11T14:51:40.170Z,8.40
2023-04-11T14:54:08.102Z,8.45
2023-04-11T14:56:36.502Z,6.55
2023-04-11T14:59:04.916Z,7.82
2023-04-11T15:01:32.971Z,8.38
2023-04-11T15:04:01.329Z,6.88
2023-04-11T15:06:29.347Z,6.93
2023-04-11T15:08:57.445Z,7.68
2023-04-11T15:11:26.367Z,7.38
2023-04-11T15:13:55.293Z,6.38
2023-04-11T15:16:23.587Z,7.15
2023-04-11T15:18:51.659Z,9.43
2023-04-11T15:21:19.310Z,6.13
2023-04-11T15:23:47.411Z,8.07
2023-04-11T15:26:15.090Z,6.97
2023-04-11T15:28:44.327Z,11.63
2023-04-11T15:31:14.737Z,6.50
2023-04-11T15:33:43.249Z,6.60
2023-04-11T15:36:11.416Z,8.35
2023-04-11T15:38:39.389Z,9.57
2023-04-11T15:41:07.629Z,5.82
2023-04-11T15:43:35.715Z,8.40
2023-04-11T15:46:03.798Z,6.68
2023-04-11T15:48:31.865Z,8.65
2023-04-11T15:50:59.499Z,8.70
2023-04-11T15:53:27.473Z,6.82
2023-04-11T15:55:55.669Z,9.63
2023-04-11T15:58:23.592Z,8.48
2023-04-11T16:00:51.382Z,9.00
2023-04-11T16:03:19.564Z,12.13
2023-04-11T16:05:50.890Z,8.35
2023-04-11T16:08:18.841Z,7.45
2023-04-11T16:10:47.043Z,11.07
2023-04-11T16:13:15.013Z,9.38
2023-04-11T16:15:42.752Z,9.35
2023-04-11T16:18:10.807Z,10.43
2023-04-11T16:20:39.302Z,12.35
2023-04-11T16:23:07.304Z,11.40
2023-04-11T16:25:34.921Z,10.48
2023-04-11T16:28:03.536Z,13.25
2023-04-11T16:30:31.489Z,12.30
2023-04-11T16:32:59.713Z,12.63
2023-04-11T16:35:27.549Z,13.15
2023-04-11T16:37:55.580Z,12.98
2023-04-11T16:40:23.323Z,11.32
2023-04-11T16:42:51.409Z,11.30
2023-04-11T16:45:19.353Z,14.88
2023-04-11T16:47:47.567Z,17.90
2023-04-11T16:50:15.751Z,14.13
2023-04-11T16:52:43.817Z,16.00
2023-04-11T16:55:11.950Z,18.42
2023-04-11T16:57:40.468Z,18.05
2023-04-11T17:00:11.593Z,18.15
2023-04-11T17:02:39.986Z,16.10
2023-04-11T17:05:08.630Z,16.40
2023-04-11T17:07:36.601Z,14.50
2023-04-11T17:10:05.347Z,16.73
2023-04-11T17:12:33.361Z,13.48
2023-04-11T17:15:01.371Z,14.25
2023-04-11T17:17:30.253Z,14.60
2023-04-11T17:19:58.095Z,15.93
2023-04-11T17:22:26.150Z,15.43
2023-04-11T17:24:54.778Z,15.70
2023-04-11T17:27:23.253Z,20.88
2023-04-11T17:29:51.036Z,16.85
2023-04-11T17:32:19.066Z,15.70
2023-04-11T17:34:47.878Z,14.82
2023-04-11T17:37:16.769Z,15.57
2023-04-11T17:39:46.449Z,16.60
2023-04-11T17:42:14.794Z,17.33
2023-04-11T17:44:42.691Z,12.48
2023-04-11T17:47:10.819Z,13.30
2023-04-11T17:49:38.651Z,11.60
2023-04-11T17:52:06.848Z,13.85
2023-04-11T17:54:34.614Z,13.48
2023-04-11T17:57:03.268Z,13.52
2023-04-11T17:59:31.380Z,16.33
2023-04-11T18:01:59.515Z,16.40
2023-04-11T18:04:27.384Z,16.08
2023-04-11T18:06:55.364Z,17.13
2023-04-11T18:09:26.762Z,20.27
2023-04-11T18:11:54.793Z,21.40
2023-04-11T18:14:22.405Z,22.75
2023-04-11T18:16:50.474Z,24.60
2023-04-11T18:19:18.170Z,27.42
2023-04-11T18:21:46.131Z,25.52
2023-04-11T18:24:13.780Z,23.55
2023-04-11T18:26:41.779Z,26.70
2023-04-11T18:29:09.453Z,27.75
2023-04-11T18:31:37.549Z,25.38
2023-04-11T18:34:06.879Z,22.75
2023-04-11T18:36:35.797Z,20.65
2023-04-11T18:39:04.032Z,18.98
2023-04-11T18:41:32.038Z,17.50
2023-04-11T18:44:00.799Z,16.50
2023-04-11T18:46:29.953Z,22.63
2023-04-11T18:48:57.682Z,19.52
2023-04-11T18:51:25.796Z,21.17
2023-04-11T18:53:53.589Z,21.05
2023-04-11T18:56:21.660Z,19.38
2023-04-11T18:58:53.204Z,16.33
2023-04-11T19:01:23.712Z,18.35
2023-04-11T19:03:55.122Z,16.02
2023-04-11T19:06:24.911Z,20.30
2023-04-11T19:08:52.512Z,17.20
2023-04-11T19:11:21.645Z,16.38
2023-04-11T19:13:49.230Z,15.55
2023-04-11T19:16:17.368Z,15.93
2023-04-11T19:18:45.052Z,17.67
2023-04-11T19:21:12.955Z,15.30
2023-04-11T19:23:40.610Z,17.67
2023-04-11T19:26:09.574Z,18.15
2023-04-11T19:28:37.275Z,17.83
2023-04-11T19:31:05.551Z,20.20
2023-04-11T19:33:33.273Z,21.88
2023-04-11T19:36:01.281Z,22.92
2023-04-11T19:38:29.039Z,24.85
2023-04-11T19:40:57.511Z,20.38
2023-04-11T19:43:25.339Z,22.35
2023-04-11T19:45:53.344Z,21.55
2023-04-11T19:48:21.142Z,24.45
2023-04-11T19:50:49.194Z,24.70
2023-04-11T19:53:16.864Z,27.50
2023-04-11T19:55:45.743Z,23.98
2023-04-11T19:58:13.434Z,23.95
2023-04-11T20:00:41.904Z,25.35
2023-04-11T20:03:14.552Z,27.52
2023-04-11T20:05:42.861Z,23.03
2023-04-11T20:08:10.710Z,27.63
2023-04-11T20:10:39.433Z,22.13
2023-04-11T20:13:07.438Z,22.25
2023-04-11T20:15:35.734Z,25.50
2023-04-11T20:18:03.676Z,26.52
2023-04-11T20:20:33.561Z,30.20
2023-04-11T20:23:04.928Z,36.58
2023-04-11T20:25:33.996Z,41.30
2023-04-11T20:28:02.120Z,40.25
2023-04-11T20:30:30.176Z,38.22
2023-04-11T20:32:57.973Z,39.88
2023-04-11T20:35:26.128Z,39.55
2023-04-11T20:37:54.129Z,43.67
2023-04-11T20:40:22.274Z,33.75
2023-04-11T20:42:49.950Z,30.23
2023-04-11T20:45:21.680Z,29.33
2023-04-11T20:47:50.400Z,40.55
2023-04-11T20:50:19.433Z,62.63
2023-04-11T20:52:51.341Z,50.55
2023-04-11T20:55:20.889Z,42.67
2023-04-11T20:57:48.742Z,35.67
2023-04-11T21:00:17.578Z,53.58
2023-04-11T21:02:47.744Z,61.60
2023-04-11T21:05:19.966Z,69.60
2023-04-11T21:07:47.728Z,71.72
2023-04-11T21:10:15.780Z,69.43
2023-04-11T21:12:43.487Z,60.97
2023-04-11T21:15:11.934Z,52.47
2023-04-11T21:17:39.869Z,47.58
2023-04-11T21:20:11.184Z,44.22
2023-04-11T21:22:40.278Z,44.63
2023-04-11T21:25:08.893Z,44.80
2023-04-11T21:27:36.613Z,43.22
2023-04-11T21:30:04.793Z,44.55
2023-04-11T21:32:33.062Z,45.42
2023-04-11T21:35:01.364Z,41.25
2023-04-11T21:37:29.115Z,40.22
2023-04-11T21:39:57.026Z,40.35
2023-04-11T21:42:24.681Z,39.65
2023-04-11T21:44:52.616Z,39.72
2023-04-11T21:47:20.560Z,35.65
2023-04-11T21:49:48.584Z,34.75
2023-04-11T21:52:16.359Z,36.72
2023-04-11T21:54:44.643Z,38.15
2023-04-11T21:57:12.350Z,35.30
2023-04-11T21:59:40.787Z,35.20
2023-04-11T22:02:08.652Z,36.38
2023-04-11T22:04:47.522Z,32.83
2023-04-11T22:07:26.669Z,34.05
2023-04-11T22:10:09.177Z,38.75
2023-04-11T22:12:37.892Z,34.08
2023-04-11T22:15:06.629Z,35.72
2023-04-11T22:17:34.584Z,34.97
2023-04-11T22:20:03.728Z,46.38
2023-04-11T22:22:32.385Z,42.78
2023-04-11T22:25:00.585Z,41.13
2023-04-11T22:27:29.611Z,42.90
2023-04-11T22:29:57.714Z,40.65
2023-04-11T22:32:26.515Z,40.67
2023-04-11T22:34:54.484Z,41.92
2023-04-11T22:37:22.142Z,37.83
2023-04-11T22:39:50.067Z,46.53
2023-04-11T22:42:17.822Z,47.80
2023-04-11T22:44:45.700Z,43.13
2023-04-11T22:47:16.222Z,45.53
2023-04-11T22:49:45.113Z,41.70
2023-04-11T22:52:14.455Z,36.47
2023-04-11T22:54:43.118Z,37.70
2023-04-11T22:57:11.078Z,36.17
2023-04-11T22:59:39.057Z,37.75
2023-04-11T23:02:06.800Z,34.40
2023-04-11T23:04:35.117Z,34.22
2023-04-11T23:07:05.032Z,34.30
2023-04-11T23:09:33.104Z,31.92
2023-04-11T23:12:00.833Z,30.67
2023-04-11T23:14:31.418Z,33.28
2023-04-11T23:16:59.307Z,30.60
2023-04-11T23:19:27.249Z,32.35
2023-04-11T23:21:55.597Z,32.22
2023-04-11T23:24:23.654Z,28.33
2023-04-11T23:26:51.644Z,30.65
2023-04-11T23:29:19.527Z,29.67
2023-04-11T23:31:47.496Z,28.02
2023-04-11T23:34:15.401Z,34.25
2023-04-11T23:36:43.468Z,35.70
2023-04-11T23:39:12.302Z,33.47
2023-04-11T23:41:40.247Z,35.50
2023-04-11T23:44:08.141Z,33.40
2023-04-11T23:46:35.930Z,33.70
2023-04-11T23:49:04.895Z,33.50
2023-04-11T23:51:32.687Z,39.33
2023-04-11T23:54:00.959Z,42.70
2023-04-11T23:56:28.725Z,50.30
2023-04-11T23:58:57.181Z,47.28
